createdAt,value
2019-01-10T00:00:57.862Z,1.60
2019-01-10T00:01:57.850Z,1.10
2019-01-10T00:02:57.833Z,1.50
2019-01-10T00:03:57.824Z,1.60
2019-01-10T00:04:57.820Z,1.20
2019-01-10T00:05:57.800Z,1.50
2019-01-10T00:06:57.794Z,2.00
2019-01-10T00:07:57.778Z,1.40
2019-01-10T00:08:57.770Z,2.30
2019-01-10T00:09:57.779Z,2.10
2019-01-10T00:10:57.746Z,2.00
2019-01-10T00:11:57.743Z,1.30
2019-01-10T00:12:57.726Z,1.90
2019-01-10T00:13:57.714Z,2.30
2019-01-10T00:14:57.714Z,1.10
2019-01-10T00:15:57.700Z,1.30
2019-01-10T00:16:57.682Z,1.50
2019-01-10T00:17:57.671Z,1.40
2019-01-10T00:18:57.659Z,1.60
2019-01-10T00:19:57.666Z,1.60
2019-01-10T00:20:57.648Z,1.80
2019-01-10T00:21:57.627Z,1.40
2019-01-10T00:22:57.616Z,1.50
2019-01-10T00:23:57.609Z,1.30
2019-01-10T00:24:57.606Z,1.70
2019-01-10T00:25:57.589Z,1.20
2019-01-10T00:26:57.584Z,1.30
2019-01-10T00:27:57.564Z,1.10
2019-01-10T00:28:57.553Z,1.80
2019-01-10T00:29:57.549Z,1.20
2019-01-10T00:30:57.535Z,1.80
2019-01-10T00:31:57.521Z,1.60
2019-01-10T00:32:57.510Z,1.40
2019-01-10T00:33:57.498Z,2.30
2019-01-10T00:34:57.499Z,1.90
2019-01-10T00:35:57.476Z,1.20
2019-01-10T00:36:57.467Z,1.70
2019-01-10T00:37:57.468Z,2.20
2019-01-10T00:38:57.447Z,1.00
2019-01-10T00:39:57.442Z,1.20
2019-01-10T00:40:57.423Z,1.30
2019-01-10T00:41:57.414Z,1.90
2019-01-10T00:42:57.401Z,1.80
2019-01-10T00:43:57.401Z,2.20
2019-01-10T00:44:57.396Z,2.60
2019-01-10T00:45:57.368Z,1.60
2019-01-10T00:46:57.358Z,2.80
2019-01-10T00:47:57.349Z,1.30
2019-01-10T00:48:57.341Z,1.90
2019-01-10T00:49:57.362Z,1.30
2019-01-10T00:50:57.317Z,1.30
2019-01-10T00:51:57.308Z,1.40
2019-01-10T00:52:57.293Z,1.30
2019-01-10T00:53:57.284Z,1.90
2019-01-10T00:54:57.275Z,1.80
2019-01-10T00:55:57.273Z,2.00
2019-01-10T00:56:57.252Z,1.60
2019-01-10T00:57:57.249Z,1.70
2019-01-10T00:58:57.231Z,1.30
2019-01-10T00:59:57.220Z,2.30
2019-01-10T01:00:57.217Z,1.30
2019-01-10T01:01:57.198Z,0.80
2019-01-10T01:02:57.189Z,1.60
2019-01-10T01:03:57.174Z,2.50
2019-01-10T01:04:57.166Z,2.00
2019-01-10T01:05:57.166Z,2.80
2019-01-10T01:06:57.145Z,1.60
2019-01-10T01:07:57.151Z,1.60
2019-01-10T01:08:57.121Z,1.90
2019-01-10T01:09:57.112Z,1.90
2019-01-10T01:10:57.110Z,2.20
2019-01-10T01:11:57.092Z,2.20
2019-01-10T01:12:58.640Z,1.40
2019-01-10T01:13:57.071Z,2.40
2019-01-10T01:14:57.056Z,1.60
2019-01-10T01:15:57.060Z,1.80
2019-01-10T01:16:57.036Z,2.00
2019-01-10T01:17:57.027Z,2.20
2019-01-10T01:18:57.016Z,2.20
2019-01-10T01:19:57.003Z,1.80
2019-01-10T01:20:56.999Z,2.20
2019-01-10T01:21:56.982Z,2.60
2019-01-10T01:22:56.971Z,2.70
2019-01-10T01:23:56.962Z,2.80
2019-01-10T01:24:56.947Z,2.50
2019-01-10T01:25:56.951Z,2.30
2019-01-10T01:26:56.931Z,2.00
2019-01-10T01:27:56.916Z,1.70
2019-01-10T01:28:56.912Z,2.00
2019-01-10T01:29:56.898Z,1.90
2019-01-10T01:30:56.897Z,2.20
2019-01-10T01:31:56.872Z,2.30
2019-01-10T01:32:56.862Z,2.00
2019-01-10T01:33:56.852Z,1.60
2019-01-10T01:34:56.840Z,2.10
2019-01-10T01:35:56.840Z,2.60
2019-01-10T01:36:56.822Z,1.60
2019-01-10T01:37:56.812Z,1.60
2019-01-10T01:38:56.797Z,3.00
2019-01-10T01:39:56.788Z,2.20
2019-01-10T01:40:56.785Z,3.90
2019-01-10T01:41:56.770Z,2.50
2019-01-10T01:42:56.758Z,2.60
2019-01-10T01:43:56.748Z,2.80
2019-01-10T01:44:56.733Z,1.80
2019-01-10T01:45:56.737Z,1.40
2019-01-10T01:46:56.713Z,2.80
2019-01-10T01:47:56.703Z,2.80
2019-01-10T01:48:56.700Z,3.00
2019-01-10T01:49:56.678Z,2.20
2019-01-10T01:50:56.678Z,3.00
2019-01-10T01:51:56.658Z,2.90
2019-01-10T01:52:56.650Z,2.20
2019-01-10T01:53:56.642Z,2.10
2019-01-10T01:54:56.626Z,3.30
2019-01-10T01:55:56.627Z,2.90
2019-01-10T01:56:56.604Z,3.80
2019-01-10T01:57:56.596Z,2.90
2019-01-10T01:58:56.587Z,3.20
2019-01-10T01:59:56.573Z,2.80
2019-01-10T02:00:56.574Z,2.80
2019-01-10T02:01:56.550Z,4.50
2019-01-10T02:02:56.541Z,2.10
2019-01-10T02:03:56.537Z,2.50
2019-01-10T02:04:56.523Z,2.70
2019-01-10T02:05:56.511Z,3.20
2019-01-10T02:06:56.509Z,2.70
2019-01-10T02:07:56.485Z,3.00
2019-01-10T02:08:57.845Z,3.40
2019-01-10T02:09:56.466Z,4.60
2019-01-10T02:10:56.454Z,3.40
2019-01-10T02:11:56.450Z,3.70
2019-01-10T02:12:56.433Z,3.60
2019-01-10T02:13:56.420Z,3.90
2019-01-10T02:14:56.410Z,2.90
2019-01-10T02:15:56.404Z,3.30
2019-01-10T02:16:56.396Z,3.90
2019-01-10T02:17:56.381Z,4.00
2019-01-10T02:18:56.366Z,3.30
2019-01-10T02:19:56.357Z,3.40
2019-01-10T02:20:56.344Z,4.30
2019-01-10T02:21:56.348Z,3.10
2019-01-10T02:22:56.327Z,3.80
2019-01-10T02:23:56.314Z,4.60
2019-01-10T02:24:56.305Z,3.70
2019-01-10T02:25:56.291Z,3.50
2019-01-10T02:26:56.294Z,3.40
2019-01-10T02:27:56.278Z,3.40
2019-01-10T02:28:56.264Z,4.80
2019-01-10T02:29:56.251Z,4.60
2019-01-10T02:30:56.239Z,3.90
2019-01-10T02:31:56.236Z,5.00
2019-01-10T02:32:56.224Z,4.50
2019-01-10T02:33:56.208Z,5.30
2019-01-10T02:34:56.195Z,3.60
2019-01-10T02:35:56.182Z,5.20
2019-01-10T02:36:56.181Z,3.90
2019-01-10T02:37:56.166Z,3.70
2019-01-10T02:38:56.151Z,3.90
2019-01-10T02:39:56.144Z,5.30
2019-01-10T02:40:56.129Z,2.90
2019-01-10T02:41:56.135Z,4.70
2019-01-10T02:42:56.108Z,6.40
2019-01-10T02:43:56.097Z,4.30
2019-01-10T02:44:56.087Z,4.30
2019-01-10T02:45:56.081Z,7.00
2019-01-10T02:46:56.111Z,3.90
2019-01-10T02:47:56.056Z,4.60
2019-01-10T02:48:56.045Z,3.00
2019-01-10T02:49:56.032Z,4.70
2019-01-10T02:50:56.023Z,3.40
2019-01-10T02:51:56.020Z,3.90
2019-01-10T02:52:56.008Z,2.90
2019-01-10T02:53:55.992Z,5.30
2019-01-10T02:54:55.978Z,3.00
2019-01-10T02:55:55.969Z,4.10
2019-01-10T02:56:55.967Z,4.50
2019-01-10T02:57:55.957Z,2.80
2019-01-10T02:58:55.938Z,4.40
2019-01-10T02:59:55.925Z,5.60
2019-01-10T03:00:55.914Z,4.50
2019-01-10T03:01:55.916Z,4.80
2019-01-10T03:02:55.897Z,3.50
2019-01-10T03:03:55.883Z,3.30
2019-01-10T03:04:55.872Z,4.10
2019-01-10T03:05:55.865Z,5.90
2019-01-10T03:06:55.861Z,6.20
2019-01-10T03:07:55.840Z,3.70
2019-01-10T03:08:55.840Z,5.80
2019-01-10T03:09:55.937Z,4.40
2019-01-10T03:10:55.805Z,3.90
2019-01-10T03:11:55.809Z,3.50
2019-01-10T03:12:55.784Z,4.00
2019-01-10T03:13:55.775Z,4.00
2019-01-10T03:14:55.770Z,5.10
2019-01-10T03:15:55.759Z,3.90
2019-01-10T03:16:55.805Z,3.60
2019-01-10T03:17:55.731Z,3.30
2019-01-10T03:18:55.721Z,4.80
2019-01-10T03:19:55.711Z,4.20
2019-01-10T03:20:55.701Z,4.20
2019-01-10T03:21:55.696Z,4.00
2019-01-10T03:22:55.686Z,5.70
2019-01-10T03:23:55.667Z,3.40
2019-01-10T03:24:55.656Z,4.80
2019-01-10T03:25:55.651Z,5.60
2019-01-10T03:26:55.639Z,4.10
2019-01-10T03:27:55.646Z,2.70
2019-01-10T03:28:55.612Z,4.90
2019-01-10T03:29:55.602Z,4.10
2019-01-10T03:30:55.595Z,5.00
2019-01-10T03:31:55.593Z,3.60
2019-01-10T03:32:55.586Z,4.10
2019-01-10T03:33:55.560Z,3.30
2019-01-10T03:34:55.547Z,3.20
2019-01-10T03:35:55.536Z,3.20
2019-01-10T03:36:55.528Z,3.60
2019-01-10T03:37:55.526Z,4.10
2019-01-10T03:38:55.506Z,4.50
2019-01-10T03:39:55.493Z,3.50
2019-01-10T03:40:55.483Z,3.70
2019-01-10T03:41:55.472Z,2.00
2019-01-10T03:42:55.471Z,3.70
2019-01-10T03:43:55.460Z,3.30
2019-01-10T03:44:55.441Z,4.20
2019-01-10T03:45:55.429Z,4.30
2019-01-10T03:46:55.420Z,5.00
2019-01-10T03:47:55.433Z,4.70
2019-01-10T03:48:55.396Z,3.70
2019-01-10T03:49:55.389Z,4.80
2019-01-10T03:50:55.381Z,3.30
2019-01-10T03:51:55.369Z,3.80
2019-01-10T03:52:55.363Z,3.90
2019-01-10T03:53:55.342Z,3.10
2019-01-10T03:54:55.334Z,3.90
2019-01-10T03:55:55.328Z,3.00
2019-01-10T03:56:55.315Z,5.00
2019-01-10T03:57:55.308Z,3.90
2019-01-10T03:58:55.288Z,4.20
2019-01-10T03:59:55.283Z,5.10
2019-01-10T04:00:55.270Z,4.30
2019-01-10T04:01:55.259Z,4.60
2019-01-10T04:02:55.267Z,3.50
2019-01-10T04:03:55.237Z,3.60
2019-01-10T04:04:55.224Z,6.50
2019-01-10T04:05:55.217Z,5.00
2019-01-10T04:06:55.205Z,3.00
2019-01-10T04:07:55.205Z,4.80
2019-01-10T04:08:55.181Z,3.30
2019-01-10T04:09:55.176Z,3.50
2019-01-10T04:10:55.161Z,2.80
2019-01-10T04:11:55.152Z,4.20
2019-01-10T04:12:55.148Z,3.50
2019-01-10T04:13:57.576Z,4.80
2019-01-10T04:14:55.118Z,3.50
2019-01-10T04:15:55.110Z,3.50
2019-01-10T04:16:55.096Z,4.30
2019-01-10T04:17:55.097Z,4.20
2019-01-10T04:18:55.082Z,2.90
2019-01-10T04:19:55.156Z,2.40
2019-01-10T04:20:55.052Z,4.60
2019-01-10T04:21:55.041Z,4.90
2019-01-10T04:22:55.041Z,5.10
2019-01-10T04:23:55.026Z,3.30
2019-01-10T04:24:55.019Z,3.30
2019-01-10T04:25:55.000Z,5.20
2019-01-10T04:26:54.989Z,3.60
2019-01-10T04:27:54.986Z,2.40
2019-01-10T04:28:54.967Z,5.40
2019-01-10T04:29:54.956Z,5.00
2019-01-10T04:30:54.949Z,2.30
2019-01-10T04:31:54.938Z,6.10
2019-01-10T04:32:54.934Z,5.40
2019-01-10T04:33:54.911Z,3.90
2019-01-10T04:34:54.908Z,4.00
2019-01-10T04:35:54.893Z,4.70
2019-01-10T04:36:54.880Z,4.00
2019-01-10T04:37:54.908Z,3.80
2019-01-10T04:38:54.857Z,3.30
2019-01-10T04:39:54.847Z,3.60
2019-01-10T04:40:54.839Z,3.20
2019-01-10T04:41:54.830Z,3.70
2019-01-10T04:42:54.817Z,3.70
2019-01-10T04:43:54.816Z,3.00
2019-01-10T04:44:54.795Z,4.90
2019-01-10T04:45:54.783Z,3.50
2019-01-10T04:46:54.778Z,4.10
2019-01-10T04:47:54.766Z,4.80
2019-01-10T04:48:54.766Z,3.50
2019-01-10T04:49:54.740Z,6.40
2019-01-10T04:50:54.737Z,3.80
2019-01-10T04:51:54.859Z,3.80
2019-01-10T04:52:54.709Z,4.50
2019-01-10T04:53:54.708Z,4.20
2019-01-10T04:54:55.961Z,4.50
2019-01-10T04:55:54.679Z,3.60
2019-01-10T04:56:54.666Z,5.00
2019-01-10T04:57:54.659Z,3.80
2019-01-10T04:58:54.654Z,3.40
2019-01-10T04:59:54.642Z,6.10
2019-01-10T05:00:54.630Z,5.20
2019-01-10T05:01:54.612Z,5.20
2019-01-10T05:02:54.638Z,3.70
2019-01-10T05:03:54.604Z,3.90
2019-01-10T05:04:54.583Z,4.80
2019-01-10T05:05:54.568Z,4.60
2019-01-10T05:06:54.561Z,5.30
2019-01-10T05:07:54.546Z,4.10
2019-01-10T05:08:54.544Z,4.30
2019-01-10T05:09:54.533Z,6.20
2019-01-10T05:10:54.516Z,5.00
2019-01-10T05:11:54.504Z,7.80
2019-01-10T05:12:54.493Z,5.80
2019-01-10T05:13:54.489Z,4.90
2019-01-10T05:14:54.471Z,5.00
2019-01-10T05:15:54.462Z,6.20
2019-01-10T05:16:54.451Z,4.40
2019-01-10T05:17:54.439Z,3.70
2019-01-10T05:18:54.444Z,5.20
2019-01-10T05:19:54.417Z,5.90
2019-01-10T05:20:54.408Z,4.20
2019-01-10T05:21:54.400Z,4.30
2019-01-10T05:22:54.394Z,4.40
2019-01-10T05:23:54.386Z,6.30
2019-01-10T05:24:54.363Z,7.40
2019-01-10T05:25:54.353Z,6.10
2019-01-10T05:26:54.346Z,6.60
2019-01-10T05:27:54.333Z,8.80
2019-01-10T05:28:54.330Z,5.40
2019-01-10T05:29:54.311Z,7.10
2019-01-10T05:30:54.300Z,5.60
2019-01-10T05:31:54.288Z,4.30
2019-01-10T05:32:54.350Z,5.50
2019-01-10T05:33:54.277Z,6.00
2019-01-10T05:34:54.275Z,3.90
2019-01-10T05:35:54.249Z,5.50
2019-01-10T05:36:54.235Z,4.40
2019-01-10T05:37:54.226Z,5.40
2019-01-10T05:38:54.226Z,4.00
2019-01-10T05:39:54.208Z,4.50
2019-01-10T05:40:54.200Z,4.00
2019-01-10T05:41:54.187Z,4.90
2019-01-10T05:42:54.176Z,4.40
2019-01-10T05:43:54.169Z,5.10
2019-01-10T05:44:54.160Z,5.20
2019-01-10T05:45:54.140Z,4.50
2019-01-10T05:46:54.132Z,7.00
2019-01-10T05:47:54.118Z,4.80
2019-01-10T05:48:54.119Z,4.90
2019-01-10T05:49:54.096Z,3.40
2019-01-10T05:50:54.088Z,5.10
2019-01-10T05:51:54.078Z,5.10
2019-01-10T05:52:54.064Z,5.40
2019-01-10T05:53:54.064Z,4.60
2019-01-10T05:54:54.045Z,5.00
2019-01-10T05:55:54.032Z,3.70
2019-01-10T05:56:54.023Z,4.40
2019-01-10T05:57:54.020Z,4.50
2019-01-10T05:58:54.031Z,5.50
2019-01-10T05:59:53.990Z,4.50
2019-01-10T06:00:53.979Z,5.20
2019-01-10T06:01:53.968Z,5.30
2019-01-10T06:02:53.959Z,4.50
2019-01-10T06:03:53.955Z,3.70
2019-01-10T06:04:53.947Z,5.00
2019-01-10T06:05:53.930Z,5.70
2019-01-10T06:06:53.913Z,4.90
2019-01-10T06:07:53.909Z,6.20
2019-01-10T06:08:53.897Z,5.20
2019-01-10T06:09:53.895Z,3.80
2019-01-10T06:10:53.875Z,4.70
2019-01-10T06:11:53.914Z,5.00
2019-01-10T06:12:53.854Z,3.50
2019-01-10T06:13:53.848Z,5.20
2019-01-10T06:14:53.841Z,3.50
2019-01-10T06:15:53.817Z,4.00
2019-01-10T06:16:53.812Z,4.70
2019-01-10T06:17:53.798Z,3.90
2019-01-10T06:18:53.787Z,4.80
2019-01-10T06:19:53.788Z,4.70
2019-01-10T06:20:53.774Z,4.90
2019-01-10T06:21:53.754Z,3.80
2019-01-10T06:22:53.745Z,4.80
2019-01-10T06:23:53.731Z,4.60
2019-01-10T06:24:53.730Z,5.00
2019-01-10T06:25:53.717Z,3.60
2019-01-10T06:26:53.702Z,6.20
2019-01-10T06:27:53.691Z,2.80
2019-01-10T06:28:53.679Z,5.00
2019-01-10T06:29:53.676Z,4.30
2019-01-10T06:30:53.660Z,4.20
2019-01-10T06:31:53.648Z,4.20
2019-01-10T06:32:53.638Z,4.00
2019-01-10T06:33:53.625Z,5.20
2019-01-10T06:34:53.626Z,4.50
2019-01-10T06:35:53.605Z,2.80
2019-01-10T06:36:53.597Z,3.90
2019-01-10T06:37:53.582Z,4.90
2019-01-10T06:38:53.574Z,6.80
2019-01-10T06:39:53.571Z,2.90
2019-01-10T06:40:53.549Z,4.70
2019-01-10T06:41:53.541Z,5.40
2019-01-10T06:42:53.529Z,4.00
2019-01-10T06:43:53.518Z,5.20
2019-01-10T06:44:53.516Z,4.50
2019-01-10T06:45:53.502Z,2.50
2019-01-10T06:46:53.490Z,4.80
2019-01-10T06:47:53.477Z,3.10
2019-01-10T06:48:53.466Z,3.60
2019-01-10T06:49:53.469Z,2.80
2019-01-10T06:50:53.445Z,2.90
2019-01-10T06:51:53.435Z,5.40
2019-01-10T06:52:53.423Z,4.10
2019-01-10T06:53:53.416Z,3.90
2019-01-10T06:54:56.644Z,4.80
2019-01-10T06:55:53.392Z,4.30
2019-01-10T06:56:53.379Z,5.00
2019-01-10T06:57:53.372Z,5.80
2019-01-10T06:58:53.358Z,5.70
2019-01-10T06:59:55.112Z,4.50
2019-01-10T07:00:53.339Z,4.40
2019-01-10T07:01:53.327Z,4.50
2019-01-10T07:02:53.316Z,3.80
2019-01-10T07:03:53.312Z,4.50
2019-01-10T07:04:53.327Z,4.20
2019-01-10T07:05:53.284Z,4.30
2019-01-10T07:06:53.274Z,3.70
2019-01-10T07:07:56.632Z,4.80
2019-01-10T07:08:53.254Z,5.10
2019-01-10T07:09:53.241Z,5.40
2019-01-10T07:10:53.246Z,4.10
2019-01-10T07:11:53.225Z,4.30
2019-01-10T07:12:53.212Z,6.10
2019-01-10T07:13:53.207Z,5.70
2019-01-10T07:14:53.636Z,6.00
2019-01-10T07:15:53.192Z,4.30
2019-01-10T07:16:53.704Z,4.40
2019-01-10T07:17:53.161Z,3.90
2019-01-10T07:18:53.145Z,4.50
2019-01-10T07:19:53.139Z,4.70
2019-01-10T07:20:53.134Z,4.80
2019-01-10T07:21:53.114Z,5.50
2019-01-10T07:22:53.102Z,5.60
2019-01-10T07:23:53.091Z,4.60
2019-01-10T07:24:53.087Z,4.80
2019-01-10T07:25:53.084Z,4.20
2019-01-10T07:26:53.060Z,4.20
2019-01-10T07:27:53.050Z,3.80
2019-01-10T07:28:53.038Z,4.50
2019-01-10T07:29:53.034Z,3.40
2019-01-10T07:30:53.025Z,4.40
2019-01-10T07:31:53.008Z,3.90
2019-01-10T07:32:53.002Z,3.60
2019-01-10T07:33:52.987Z,3.30
2019-01-10T07:34:52.980Z,4.60
2019-01-10T07:35:52.973Z,3.40
2019-01-10T07:36:52.953Z,3.60
2019-01-10T07:37:52.943Z,3.90
2019-01-10T07:38:52.934Z,5.30
2019-01-10T07:39:52.921Z,3.10
2019-01-10T07:40:52.927Z,5.10
2019-01-10T07:41:52.900Z,4.60
2019-01-10T07:42:52.891Z,4.90
2019-01-10T07:43:52.881Z,5.00
2019-01-10T07:44:52.871Z,5.10
2019-01-10T07:45:52.867Z,4.50
2019-01-10T07:46:52.849Z,3.50
2019-01-10T07:47:52.839Z,3.50
2019-01-10T07:48:52.832Z,3.70
2019-01-10T07:49:52.814Z,4.80
2019-01-10T07:50:52.818Z,5.70
2019-01-10T07:51:52.796Z,3.50
2019-01-10T07:52:52.783Z,4.00
2019-01-10T07:53:52.773Z,3.00
2019-01-10T07:54:52.765Z,2.70
2019-01-10T07:55:52.760Z,4.20
2019-01-10T07:56:52.741Z,3.90
2019-01-10T07:57:52.731Z,3.60
2019-01-10T07:58:52.720Z,2.90
2019-01-10T07:59:52.709Z,4.50
2019-01-10T08:00:53.954Z,3.40
2019-01-10T08:01:52.688Z,4.40
2019-01-10T08:02:52.677Z,3.90
2019-01-10T08:03:52.667Z,2.80
2019-01-10T08:04:52.657Z,2.80
2019-01-10T08:05:52.648Z,3.10
2019-01-10T08:06:52.649Z,3.40
2019-01-10T08:07:52.629Z,4.30
2019-01-10T08:08:52.614Z,3.70
2019-01-10T08:09:52.603Z,3.80
2019-01-10T08:10:52.616Z,4.90
2019-01-10T08:12:00.375Z,2.80
2019-01-10T08:12:53.570Z,4.00
2019-01-10T08:13:52.562Z,3.60
2019-01-10T08:14:52.549Z,4.50
2019-01-10T08:15:52.539Z,4.50
2019-01-10T08:16:52.538Z,4.10
2019-01-10T08:17:52.516Z,4.90
2019-01-10T08:18:52.506Z,3.90
2019-01-10T08:19:52.498Z,3.40
2019-01-10T08:20:52.484Z,3.30
2019-01-10T08:21:52.484Z,4.50
2019-01-10T08:22:52.462Z,5.20
2019-01-10T08:23:52.456Z,3.20
2019-01-10T08:24:52.446Z,4.30
2019-01-10T08:25:52.431Z,3.60
2019-01-10T08:26:52.432Z,4.90
2019-01-10T08:27:52.410Z,3.40
2019-01-10T08:28:52.402Z,2.70
2019-01-10T08:29:52.395Z,3.20
2019-01-10T08:30:52.377Z,3.50
2019-01-10T08:31:52.377Z,3.20
2019-01-10T08:32:52.360Z,5.30
2019-01-10T08:33:52.347Z,5.10
2019-01-10T08:34:52.335Z,3.90
2019-01-10T08:35:52.328Z,3.20
2019-01-10T08:36:52.325Z,3.30
2019-01-10T08:37:52.305Z,3.00
2019-01-10T08:38:52.293Z,3.30
2019-01-10T08:39:52.281Z,4.60
2019-01-10T08:40:52.276Z,4.10
2019-01-10T08:41:52.271Z,3.10
2019-01-10T08:42:52.250Z,4.40
2019-01-10T08:43:52.238Z,3.30
2019-01-10T08:44:52.245Z,5.10
2019-01-10T08:45:52.221Z,3.40
2019-01-10T08:46:52.214Z,3.40
2019-01-10T08:47:52.194Z,4.60
2019-01-10T08:48:52.191Z,3.60
2019-01-10T08:49:52.175Z,4.10
2019-01-10T08:50:52.162Z,3.50
2019-01-10T08:51:52.161Z,3.60
2019-01-10T08:52:52.143Z,5.50
2019-01-10T08:53:54.015Z,3.60
2019-01-10T08:54:52.123Z,2.90
2019-01-10T08:55:52.112Z,4.30
2019-01-10T08:56:52.111Z,3.80
2019-01-10T08:57:52.089Z,3.60
2019-01-10T08:58:52.081Z,3.40
2019-01-10T08:59:52.070Z,4.10
2019-01-10T09:00:52.056Z,4.50
2019-01-10T09:01:52.056Z,3.00
2019-01-10T09:02:52.034Z,3.50
2019-01-10T09:03:52.024Z,3.20
2019-01-10T09:04:52.015Z,2.80
2019-01-10T09:05:52.003Z,4.30
2019-01-10T09:06:52.001Z,5.20
2019-01-10T09:07:51.981Z,3.80
2019-01-10T09:08:51.971Z,2.80
2019-01-10T09:09:51.963Z,2.20
2019-01-10T09:10:51.948Z,2.80
2019-01-10T09:11:51.947Z,3.90
2019-01-10T09:12:51.925Z,2.90
2019-01-10T09:13:51.914Z,3.70
2019-01-10T09:14:51.911Z,2.50
2019-01-10T09:15:51.894Z,2.50
2019-01-10T09:16:51.893Z,3.40
2019-01-10T09:17:51.873Z,3.70
2019-01-10T09:18:51.861Z,4.10
2019-01-10T09:19:51.856Z,3.00
2019-01-10T09:20:51.841Z,2.50
2019-01-10T09:21:51.836Z,2.90
2019-01-10T09:22:51.835Z,2.90
2019-01-10T09:23:51.810Z,3.70
2019-01-10T09:24:51.798Z,3.50
2019-01-10T09:25:51.786Z,2.80
2019-01-10T09:26:51.780Z,2.70
2019-01-10T09:27:51.778Z,3.10
2019-01-10T09:28:51.757Z,3.20
2019-01-10T09:29:51.742Z,3.50
2019-01-10T09:30:51.732Z,3.40
2019-01-10T09:31:51.722Z,2.30
2019-01-10T09:32:51.726Z,2.90
2019-01-10T09:33:51.705Z,2.70
2019-01-10T09:34:51.690Z,2.30
2019-01-10T09:35:51.683Z,3.00
2019-01-10T09:36:51.703Z,2.50
2019-01-10T09:37:51.670Z,3.90
2019-01-10T09:38:51.650Z,2.40
2019-01-10T09:39:51.644Z,2.80
2019-01-10T09:40:51.630Z,2.80
2019-01-10T09:41:51.614Z,2.40
2019-01-10T09:42:51.615Z,2.50
2019-01-10T09:43:51.596Z,2.90
2019-01-10T09:44:51.582Z,3.70
2019-01-10T09:45:51.571Z,1.90
2019-01-10T09:46:51.561Z,2.60
2019-01-10T09:47:51.563Z,3.60
2019-01-10T09:48:51.539Z,2.60
2019-01-10T09:49:51.528Z,3.80
2019-01-10T09:50:51.525Z,3.50
2019-01-10T09:51:51.507Z,3.80
2019-01-10T09:52:51.506Z,2.40
2019-01-10T09:53:51.487Z,2.20
2019-01-10T09:54:51.475Z,3.30
2019-01-10T09:55:51.463Z,3.20
2019-01-10T09:56:51.455Z,2.50
2019-01-10T09:57:51.453Z,4.00
2019-01-10T09:58:51.436Z,2.70
2019-01-10T09:59:51.423Z,3.50
2019-01-10T10:00:51.410Z,2.20
2019-01-10T10:01:51.398Z,3.80
2019-01-10T10:02:51.403Z,2.60
2019-01-10T10:03:51.380Z,3.70
2019-01-10T10:04:51.366Z,3.30
2019-01-10T10:05:51.358Z,2.90
2019-01-10T10:06:51.346Z,3.10
2019-01-10T10:07:51.350Z,3.00
2019-01-10T10:08:51.328Z,2.80
2019-01-10T10:09:51.314Z,2.20
2019-01-10T10:10:51.303Z,2.90
2019-01-10T10:11:51.293Z,2.60
2019-01-10T10:12:51.296Z,2.50
2019-01-10T10:13:51.275Z,2.00
2019-01-10T10:14:51.260Z,2.50
2019-01-10T10:15:52.771Z,1.70
2019-01-10T10:16:51.240Z,2.30
2019-01-10T10:17:51.238Z,3.00
2019-01-10T10:18:51.235Z,2.50
2019-01-10T10:19:51.205Z,3.00
2019-01-10T10:20:51.199Z,2.90
2019-01-10T10:21:51.187Z,4.60
2019-01-10T10:22:51.185Z,2.10
2019-01-10T10:23:51.163Z,3.20
2019-01-10T10:24:51.154Z,2.60
2019-01-10T10:25:51.140Z,2.30
2019-01-10T10:26:51.131Z,2.70
2019-01-10T10:27:51.127Z,2.70
2019-01-10T10:28:51.110Z,3.20
2019-01-10T10:29:51.101Z,2.70
2019-01-10T10:30:51.091Z,3.00
2019-01-10T10:31:51.077Z,2.10
2019-01-10T10:32:51.075Z,4.30
2019-01-10T10:33:51.056Z,3.30
2019-01-10T10:34:51.045Z,2.50
2019-01-10T10:35:51.035Z,5.80
2019-01-10T10:36:51.024Z,3.10
2019-01-10T10:37:51.047Z,3.60
2019-01-10T10:38:51.005Z,3.50
2019-01-10T10:39:50.993Z,4.10
2019-01-10T10:40:50.981Z,3.00
2019-01-10T10:41:50.972Z,4.80
2019-01-10T10:42:51.840Z,2.90
2019-01-10T10:43:50.958Z,3.50
2019-01-10T10:44:50.939Z,3.00
2019-01-10T10:45:50.931Z,3.10
2019-01-10T10:46:50.917Z,3.10
2019-01-10T10:47:50.907Z,3.10
2019-01-10T10:48:50.906Z,4.30
2019-01-10T10:49:50.886Z,3.50
2019-01-10T10:50:50.875Z,4.50
2019-01-10T10:51:50.864Z,1.80
2019-01-10T10:52:50.924Z,2.40
2019-01-10T10:53:50.853Z,2.10
2019-01-10T10:54:50.833Z,2.60
2019-01-10T10:55:50.823Z,4.00
2019-01-10T10:56:50.812Z,3.00
2019-01-10T10:57:50.800Z,2.70
2019-01-10T10:58:50.799Z,2.70
2019-01-10T10:59:50.780Z,2.50
2019-01-10T11:00:50.769Z,2.80
2019-01-10T11:01:50.760Z,2.20
2019-01-10T11:02:50.749Z,4.20
2019-01-10T11:03:50.857Z,2.80
2019-01-10T11:04:50.725Z,1.80
2019-01-10T11:05:50.714Z,2.60
2019-01-10T11:06:50.717Z,3.30
2019-01-10T11:07:50.694Z,1.90
2019-01-10T11:08:50.693Z,2.60
2019-01-10T11:09:50.674Z,2.00
2019-01-10T11:10:50.664Z,1.70
2019-01-10T11:11:50.660Z,4.00
2019-01-10T11:12:50.652Z,2.10
2019-01-10T11:13:50.640Z,2.20
2019-01-10T11:14:50.626Z,2.60
2019-01-10T11:15:50.611Z,2.00
2019-01-10T11:16:50.597Z,3.20
2019-01-10T11:17:50.587Z,3.00
2019-01-10T11:18:50.587Z,1.60
2019-01-10T11:19:51.234Z,2.10
2019-01-10T11:20:50.555Z,2.80
2019-01-10T11:21:50.545Z,2.50
2019-01-10T11:22:50.535Z,2.40
2019-01-10T11:23:50.536Z,3.90
2019-01-10T11:24:50.519Z,2.70
2019-01-10T11:25:50.503Z,3.60
2019-01-10T11:26:50.493Z,3.10
2019-01-10T11:27:50.480Z,2.40
2019-01-10T11:28:50.483Z,2.40
2019-01-10T11:29:50.464Z,2.40
2019-01-10T11:30:50.467Z,3.20
2019-01-10T11:31:50.441Z,2.10
2019-01-10T11:32:50.428Z,2.90
2019-01-10T11:33:50.428Z,2.60
2019-01-10T11:34:50.411Z,1.90
2019-01-10T11:35:50.402Z,2.20
2019-01-10T11:36:50.388Z,1.40
2019-01-10T11:37:50.375Z,1.60
2019-01-10T11:38:50.376Z,2.10
2019-01-10T11:39:50.356Z,2.40
2019-01-10T11:40:50.347Z,3.20
2019-01-10T11:41:50.333Z,3.00
2019-01-10T11:42:50.322Z,2.70
2019-01-10T11:43:50.319Z,2.20
2019-01-10T11:44:50.303Z,3.30
2019-01-10T11:45:50.291Z,1.40
2019-01-10T11:46:50.279Z,2.50
2019-01-10T11:47:50.272Z,2.40
2019-01-10T11:48:50.274Z,1.90
2019-01-10T11:49:50.254Z,2.20
2019-01-10T11:50:50.241Z,3.70
2019-01-10T11:51:50.230Z,1.70
2019-01-10T11:52:50.217Z,3.20
2019-01-10T11:53:50.213Z,2.40
2019-01-10T11:54:50.209Z,1.80
2019-01-10T11:55:50.194Z,2.30
2019-01-10T11:56:50.174Z,1.80
2019-01-10T11:57:50.164Z,2.30
2019-01-10T11:58:50.179Z,2.10
2019-01-10T11:59:50.158Z,2.40
2019-01-10T12:00:50.134Z,1.30
2019-01-10T12:01:50.122Z,2.30
2019-01-10T12:02:50.117Z,2.20
2019-01-10T12:03:50.099Z,1.90
2019-01-10T12:04:50.098Z,2.80
2019-01-10T12:05:52.960Z,2.10
2019-01-10T12:06:50.137Z,2.40
2019-01-10T12:07:50.058Z,1.70
2019-01-10T12:08:50.047Z,2.40
2019-01-10T12:09:50.046Z,2.00
2019-01-10T12:10:50.077Z,1.50
2019-01-10T12:11:50.019Z,1.80
2019-01-10T12:12:50.003Z,2.70
2019-01-10T12:13:49.995Z,1.20
2019-01-10T12:14:50.000Z,1.40
2019-01-10T12:15:49.982Z,2.50
2019-01-10T12:16:49.961Z,1.80
2019-01-10T12:17:49.951Z,2.40
2019-01-10T12:18:59.038Z,1.80
2019-01-10T12:19:50.940Z,2.80
2019-01-10T12:20:49.921Z,2.30
2019-01-10T12:21:49.909Z,2.30
2019-01-10T12:22:49.898Z,1.90
2019-01-10T12:23:49.886Z,2.50
2019-01-10T12:24:49.885Z,2.00
2019-01-10T12:25:49.869Z,3.30
2019-01-10T12:26:49.856Z,1.30
2019-01-10T12:27:49.844Z,2.20
2019-01-10T12:28:49.839Z,3.00
2019-01-10T12:29:49.831Z,2.40
2019-01-10T12:30:49.815Z,1.30
2019-01-10T12:31:49.805Z,1.60
2019-01-10T12:32:49.793Z,1.90
2019-01-10T12:33:49.810Z,2.80
2019-01-10T12:34:49.785Z,2.60
2019-01-10T12:35:49.762Z,1.70
2019-01-10T12:36:49.749Z,4.50
2019-01-10T12:37:49.805Z,2.40
2019-01-10T12:38:49.729Z,1.50
2019-01-10T12:39:49.723Z,2.00
2019-01-10T12:40:49.710Z,2.40
2019-01-10T12:41:49.696Z,2.10
2019-01-10T12:42:49.685Z,2.90
2019-01-10T12:43:49.675Z,3.60
2019-01-10T12:44:49.673Z,2.70
2019-01-10T12:45:49.657Z,2.30
2019-01-10T12:46:49.648Z,2.60
2019-01-10T12:47:49.634Z,2.40
2019-01-10T12:48:49.620Z,2.70
2019-01-10T12:49:49.912Z,2.20
2019-01-10T12:50:49.600Z,2.30
2019-01-10T12:51:49.598Z,2.50
2019-01-10T12:52:49.578Z,1.70
2019-01-10T12:53:49.568Z,1.60
2019-01-10T12:54:49.557Z,1.50
2019-01-10T12:55:49.554Z,1.90
2019-01-10T12:56:49.539Z,1.80
2019-01-10T12:57:49.527Z,3.60
2019-01-10T12:58:49.516Z,1.60
2019-01-10T12:59:49.504Z,3.50
2019-01-10T13:00:49.501Z,1.70
2019-01-10T13:01:49.485Z,2.80
2019-01-10T13:02:49.533Z,2.00
2019-01-10T13:03:49.461Z,1.50
2019-01-10T13:04:49.453Z,1.50
2019-01-10T13:05:49.448Z,2.30
2019-01-10T13:06:49.435Z,2.00
2019-01-10T13:07:49.421Z,2.50
2019-01-10T13:08:49.411Z,2.50
2019-01-10T13:09:49.398Z,3.00
2019-01-10T13:10:49.402Z,3.90
2019-01-10T13:11:49.379Z,2.80
2019-01-10T13:12:49.365Z,2.80
2019-01-10T13:13:49.357Z,2.80
2019-01-10T13:14:49.344Z,3.00
2019-01-10T13:15:49.347Z,2.30
2019-01-10T13:16:49.324Z,2.40
2019-01-10T13:17:49.317Z,2.50
2019-01-10T13:18:49.305Z,1.90